Wien — DB8145 — position and weather

sailwx.info

Track history (hours):
 
Tides and Currents Weather Stations Pressure Air Temp Water Temp Dewpoint Dewpoint Depression Visibility Wind Speed Wind Dir Waves Ship Positions

Wien

Last reported at 2017-Oct-14 04:41 UTC. Time now 2017-Oct-17 20:47 UTC.
Position N 44°20' E 027°45'.

Length 270 m; draft 0.3 m.

Type: Ship. MMSI: 211644170.

Date/timePositionNaut miles runAvg speedWind from/ knotsBaromVisibWave heightAir tempDewpointWater temp
2017-Oct-14 04:41N 44°20' E 027°45'1 3.5
2017-Oct-14 04:29N 44°19' E 027°46'2 3.3
2017-Oct-14 03:56N 44°20' E 027°49'2 3.4
2017-Oct-14 03:28N 44°21' E 027°50'2 3.4
2017-Oct-14 02:50N 44°23' E 027°51'1 3.7
2017-Oct-14 02:28N 44°24' E 027°53'2 3.6
2017-Oct-14 02:00N 44°25' E 027°55'  
2017-Oct-09 12:21N 44°41' E 022°24'2 6.0
2017-Oct-09 12:00N 44°40' E 022°21'8 5.8
2017-Oct-09 10:36N 44°34' E 022°14'1 6.3
2017-Oct-09 10:29N 44°33' E 022°14'3 6.3
2017-Oct-09 10:00N 44°30' E 022°12'3 5.3
2017-Oct-09 09:30N 44°28' E 022°09'3 6.0
2017-Oct-09 09:00N 44°29' E 022°06'3 6.3
2017-Oct-09 08:30N 44°32' E 022°03'3 6.1
2017-Oct-09 08:00N 44°35' E 022°02'22 5.6
2017-Oct-09 04:09N 44°46' E 021°35'1 6.6
2017-Oct-09 03:57N 44°46' E 021°33'2 3.2
2017-Oct-09 03:17N 44°46' E 021°30'0 0.1
2017-Oct-09 02:57N 44°46' E 021°30'0 0.3
2017-Oct-09 01:16N 44°46' E 021°31'0 0.1
2017-Oct-09 00:57N 44°46' E 021°31'0 0.0
2017-Oct-09 00:30N 44°46' E 021°31'0 0.3
2017-Oct-08 23:56N 44°46' E 021°31'0 1.0
2017-Oct-08 23:30N 44°46' E 021°30'14 5.3
2017-Oct-08 20:49N 44°45' E 021°10'2 6.2
2017-Oct-08 20:31N 44°44' E 021°08'3 6.5
2017-Oct-08 20:01N 44°43' E 021°04'3 6.4
2017-Oct-08 19:31N 44°43' E 020°59'3 6.6
2017-Oct-08 19:01N 44°41' E 020°56'3 6.3
2017-Oct-08 18:30N 44°40' E 020°52'3 6.7
2017-Oct-08 18:00N 44°40' E 020°47'3 6.3
2017-Oct-08 17:30N 44°41' E 020°43'3 6.4
2017-Oct-08 17:00N 44°44' E 020°41'3 6.3
2017-Oct-08 16:30N 44°46' E 020°38'3 6.2
2017-Oct-08 16:00N 44°49' E 020°39'3 5.7
2017-Oct-08 15:30N 44°51' E 020°36'3 6.4
2017-Oct-08 15:01N 44°50' E 020°32'3 6.4
2017-Oct-08 14:30N 44°50' E 020°28'3 6.7
2017-Oct-08 14:00N 44°51' E 020°24'3 6.4
2017-Oct-08 13:30N 44°54' E 020°21'3 6.8
2017-Oct-08 13:00N 44°57' E 020°18'3 6.0
2017-Oct-08 12:30N 44°60' E 020°18'3 6.2
2017-Oct-08 12:00N 45°02' E 020°22'4 6.7
2017-Oct-08 11:25N 45°05' E 020°19'3 6.9
2017-Oct-08 11:00N 45°07' E 020°17'4 7.1
2017-Oct-08 10:30N 45°10' E 020°14'4 6.3
2017-Oct-08 09:49N 45°10' E 020°08'4 7.2
2017-Oct-08 09:17N 45°10' E 020°02'9 1.7
2017-Oct-08 03:48N 45°16' E 019°52'5 0.4
2017-Oct-07 16:27N 45°14' E 019°46'3 6.1
2017-Oct-07 15:54N 45°14' E 019°41'8 5.7
2017-Oct-07 14:31N 45°15' E 019°30'2 6.3
2017-Oct-07 14:07N 45°14' E 019°27'1 6.4
2017-Oct-07 14:00N 45°14' E 019°26'4 6.4
2017-Oct-07 13:21N 45°14' E 019°20'5 6.4
2017-Oct-07 12:30N 45°16' E 019°12'4 6.5
2017-Oct-07 11:56N 45°17' E 019°07'3 6.1
2017-Oct-07 11:23N 45°20' E 019°05'3 6.6
2017-Oct-07 10:59N 45°21' E 019°02'3 6.8
2017-Oct-07 10:30N 45°23' E 018°58'3 6.0
2017-Oct-07 10:00N 45°24' E 019°02'3 6.4
2017-Oct-07 09:30N 45°27' E 018°59'3 5.7
2017-Oct-07 09:00N 45°30' E 019°01'3 6.1
2017-Oct-07 08:30N 45°30' E 019°05'3 5.4
2017-Oct-07 08:00N 45°32' E 019°04'3 5.2
2017-Oct-07 07:31N 45°33' E 019°00'3 6.1
2017-Oct-07 07:00N 45°32' E 018°56'3 5.8
2017-Oct-07 06:30N 45°35' E 018°54'3 5.9
2017-Oct-07 06:00N 45°38' E 018°55'3 6.6
2017-Oct-07 05:30N 45°40' E 018°58'3 6.0
2017-Oct-07 05:00N 45°42' E 018°55'3 6.7
2017-Oct-07 04:30N 45°45' E 018°54'3 6.1
2017-Oct-07 04:00N 45°48' E 018°51'2 4.8
2017-Oct-07 03:30N 45°50' E 018°51'0 0.0
2017-Oct-07 03:00N 45°50' E 018°51'0 0.0
2017-Oct-07 02:30N 45°50' E 018°51'0 0.0
2017-Oct-07 02:00N 45°50' E 018°51'0 0.0
2017-Oct-07 01:31N 45°50' E 018°51'0 0.0
2017-Oct-07 01:00N 45°50' E 018°51'0 0.0
2017-Oct-07 00:30N 45°50' E 018°51'0 0.0
2017-Oct-07 00:00N 45°50' E 018°51'0 0.1
2017-Oct-06 23:29N 45°50' E 018°51'2 5.1
2017-Oct-06 23:00N 45°52' E 018°50'84 3.5
2017-Oct-05 23:05N 47°17' E 018°55'3 7.6
2017-Oct-05 22:39N 47°20' E 018°57'4 6.9
2017-Oct-05 22:09N 47°23' E 018°59'0 2.7
2017-Oct-05 21:58N 47°23' E 018°59'0 0.1
2017-Oct-05 20:12N 47°23' E 018°59'0 0.0
2017-Oct-05 14:52N 47°23' E 018°59'2 6.4
2017-Oct-05 14:30N 47°24' E 019°02'3 6.3
2017-Oct-05 14:00N 47°27' E 019°03'0 0.0
2017-Oct-05 13:30N 47°27' E 019°03'0 0.8
2017-Oct-05 13:00N 47°27' E 019°03'0 0.0
2017-Oct-05 12:30N 47°27' E 019°03'1 1.6
2017-Oct-05 12:00N 47°26' E 019°03'2 4.6
2017-Oct-05 11:29N 47°24' E 019°02'2 2.6
2017-Oct-05 10:45N 47°23' E 018°59'2 7.3
2017-Oct-05 10:31N 47°24' E 019°02'4 7.2
2017-Oct-05 10:00N 47°27' E 019°03'0 0.5
2017-Oct-05 09:12N 47°27' E 019°03'0 0.0
2017-Oct-05 08:57N 47°27' E 019°03'0 0.2
2017-Oct-05 08:26N 47°27' E 019°03'1 1.2
2017-Oct-05 08:00N 47°27' E 019°03'0 0.5
2017-Oct-05 07:30N 47°27' E 019°03'3 7.0
2017-Oct-05 07:00N 47°31' E 019°03'4 7.8
2017-Oct-05 06:28N 47°35' E 019°04'56 3.2
2017-Oct-04 12:46N 47°45' E 017°43'410.3
2017-Oct-04 12:24N 47°48' E 017°38'4 9.6
2017-Oct-04 12:00N 47°51' E 017°35'3 5.1
2017-Oct-04 11:27N 47°53' E 017°32'0 0.9
2017-Oct-04 11:01N 47°53' E 017°32'4 8.1
2017-Oct-04 10:31N 47°56' E 017°28'4 8.0
2017-Oct-04 10:01N 47°59' E 017°23'4 7.4
2017-Oct-04 09:30N 48°00' E 017°18'4 7.4
2017-Oct-04 09:01N 48°02' E 017°14'4 8.7
2017-Oct-04 08:30N 48°05' E 017°09'4 7.1
2017-Oct-04 08:01N 48°08' E 017°06'5 9.7
2017-Oct-04 07:31N 48°10' E 016°59'4 8.8
2017-Oct-04 07:00N 48°08' E 016°53'14 9.8
2017-Oct-04 05:34N 48°09' E 016°32'2 9.8
2017-Oct-04 05:21N 48°10' E 016°29'1 1.5
2017-Oct-04 04:52N 48°11' E 016°29'  
Track history (hours):
 
Tides and Currents Weather Stations Pressure Air Temp Water Temp Dewpoint Dewpoint Depression Visibility Wind Speed Wind Dir Waves Ship Positions

Wien

Last reported at 2017-Oct-14 04:41 UTC. Time now 2017-Oct-17 20:47 UTC.
Position N 44°20' E 027°45'.

Length 270 m; draft 0.3 m.

Type: Ship. MMSI: 211644170.

Date/timePositionNaut miles runAvg speedWind from/ knotsBaromVisibWave heightAir tempDewpointWater temp
2017-Oct-14 04:41N 44°20' E 027°45'1 3.5
2017-Oct-14 04:29N 44°19' E 027°46'2 3.3
2017-Oct-14 03:56N 44°20' E 027°49'2 3.4
2017-Oct-14 03:28N 44°21' E 027°50'2 3.4
2017-Oct-14 02:50N 44°23' E 027°51'1 3.7
2017-Oct-14 02:28N 44°24' E 027°53'2 3.6
2017-Oct-14 02:00N 44°25' E 027°55'  
2017-Oct-09 12:21N 44°41' E 022°24'2 6.0
2017-Oct-09 12:00N 44°40' E 022°21'8 5.8
2017-Oct-09 10:36N 44°34' E 022°14'1 6.3
2017-Oct-09 10:29N 44°33' E 022°14'3 6.3
2017-Oct-09 10:00N 44°30' E 022°12'3 5.3
2017-Oct-09 09:30N 44°28' E 022°09'3 6.0
2017-Oct-09 09:00N 44°29' E 022°06'3 6.3
2017-Oct-09 08:30N 44°32' E 022°03'3 6.1
2017-Oct-09 08:00N 44°35' E 022°02'22 5.6
2017-Oct-09 04:09N 44°46' E 021°35'1 6.6
2017-Oct-09 03:57N 44°46' E 021°33'2 3.2
2017-Oct-09 03:17N 44°46' E 021°30'0 0.1
2017-Oct-09 02:57N 44°46' E 021°30'0 0.3
2017-Oct-09 01:16N 44°46' E 021°31'0 0.1
2017-Oct-09 00:57N 44°46' E 021°31'0 0.0
2017-Oct-09 00:30N 44°46' E 021°31'0 0.3
2017-Oct-08 23:56N 44°46' E 021°31'0 1.0
2017-Oct-08 23:30N 44°46' E 021°30'14 5.3
2017-Oct-08 20:49N 44°45' E 021°10'2 6.2
2017-Oct-08 20:31N 44°44' E 021°08'3 6.5
2017-Oct-08 20:01N 44°43' E 021°04'3 6.4
2017-Oct-08 19:31N 44°43' E 020°59'3 6.6
2017-Oct-08 19:01N 44°41' E 020°56'3 6.3
2017-Oct-08 18:30N 44°40' E 020°52'3 6.7
2017-Oct-08 18:00N 44°40' E 020°47'3 6.3
2017-Oct-08 17:30N 44°41' E 020°43'3 6.4
2017-Oct-08 17:00N 44°44' E 020°41'3 6.3
2017-Oct-08 16:30N 44°46' E 020°38'3 6.2
2017-Oct-08 16:00N 44°49' E 020°39'3 5.7
2017-Oct-08 15:30N 44°51' E 020°36'3 6.4
2017-Oct-08 15:01N 44°50' E 020°32'3 6.4
2017-Oct-08 14:30N 44°50' E 020°28'3 6.7
2017-Oct-08 14:00N 44°51' E 020°24'3 6.4
2017-Oct-08 13:30N 44°54' E 020°21'3 6.8
2017-Oct-08 13:00N 44°57' E 020°18'3 6.0
2017-Oct-08 12:30N 44°60' E 020°18'3 6.2
2017-Oct-08 12:00N 45°02' E 020°22'4 6.7
2017-Oct-08 11:25N 45°05' E 020°19'3 6.9
2017-Oct-08 11:00N 45°07' E 020°17'4 7.1
2017-Oct-08 10:30N 45°10' E 020°14'4 6.3
2017-Oct-08 09:49N 45°10' E 020°08'4 7.2
2017-Oct-08 09:17N 45°10' E 020°02'9 1.7
2017-Oct-08 03:48N 45°16' E 019°52'5 0.4
2017-Oct-07 16:27N 45°14' E 019°46'3 6.1
2017-Oct-07 15:54N 45°14' E 019°41'8 5.7
2017-Oct-07 14:31N 45°15' E 019°30'2 6.3
2017-Oct-07 14:07N 45°14' E 019°27'1 6.4
2017-Oct-07 14:00N 45°14' E 019°26'4 6.4
2017-Oct-07 13:21N 45°14' E 019°20'5 6.4
2017-Oct-07 12:30N 45°16' E 019°12'4 6.5
2017-Oct-07 11:56N 45°17' E 019°07'3 6.1
2017-Oct-07 11:23N 45°20' E 019°05'3 6.6
2017-Oct-07 10:59N 45°21' E 019°02'3 6.8
2017-Oct-07 10:30N 45°23' E 018°58'3 6.0
2017-Oct-07 10:00N 45°24' E 019°02'3 6.4
2017-Oct-07 09:30N 45°27' E 018°59'3 5.7
2017-Oct-07 09:00N 45°30' E 019°01'3 6.1
2017-Oct-07 08:30N 45°30' E 019°05'3 5.4
2017-Oct-07 08:00N 45°32' E 019°04'3 5.2
2017-Oct-07 07:31N 45°33' E 019°00'3 6.1
2017-Oct-07 07:00N 45°32' E 018°56'3 5.8
2017-Oct-07 06:30N 45°35' E 018°54'3 5.9
2017-Oct-07 06:00N 45°38' E 018°55'3 6.6
2017-Oct-07 05:30N 45°40' E 018°58'3 6.0
2017-Oct-07 05:00N 45°42' E 018°55'3 6.7
2017-Oct-07 04:30N 45°45' E 018°54'3 6.1
2017-Oct-07 04:00N 45°48' E 018°51'2 4.8
2017-Oct-07 03:30N 45°50' E 018°51'0 0.0
2017-Oct-07 03:00N 45°50' E 018°51'0 0.0
2017-Oct-07 02:30N 45°50' E 018°51'0 0.0
2017-Oct-07 02:00N 45°50' E 018°51'0 0.0
2017-Oct-07 01:31N 45°50' E 018°51'0 0.0
2017-Oct-07 01:00N 45°50' E 018°51'0 0.0
2017-Oct-07 00:30N 45°50' E 018°51'0 0.0
2017-Oct-07 00:00N 45°50' E 018°51'0 0.1
2017-Oct-06 23:29N 45°50' E 018°51'2 5.1
2017-Oct-06 23:00N 45°52' E 018°50'84 3.5
2017-Oct-05 23:05N 47°17' E 018°55'3 7.6
2017-Oct-05 22:39N 47°20' E 018°57'4 6.9
2017-Oct-05 22:09N 47°23' E 018°59'0 2.7
2017-Oct-05 21:58N 47°23' E 018°59'0 0.1
2017-Oct-05 20:12N 47°23' E 018°59'0 0.0
2017-Oct-05 14:52N 47°23' E 018°59'2 6.4
2017-Oct-05 14:30N 47°24' E 019°02'3 6.3
2017-Oct-05 14:00N 47°27' E 019°03'0 0.0
2017-Oct-05 13:30N 47°27' E 019°03'0 0.8
2017-Oct-05 13:00N 47°27' E 019°03'0 0.0
2017-Oct-05 12:30N 47°27' E 019°03'1 1.6
2017-Oct-05 12:00N 47°26' E 019°03'2 4.6
2017-Oct-05 11:29N 47°24' E 019°02'2 2.6
2017-Oct-05 10:45N 47°23' E 018°59'2 7.3
2017-Oct-05 10:31N 47°24' E 019°02'4 7.2
2017-Oct-05 10:00N 47°27' E 019°03'0 0.5
2017-Oct-05 09:12N 47°27' E 019°03'0 0.0
2017-Oct-05 08:57N 47°27' E 019°03'0 0.2
2017-Oct-05 08:26N 47°27' E 019°03'1 1.2
2017-Oct-05 08:00N 47°27' E 019°03'0 0.5
2017-Oct-05 07:30N 47°27' E 019°03'3 7.0
2017-Oct-05 07:00N 47°31' E 019°03'4 7.8
2017-Oct-05 06:28N 47°35' E 019°04'56 3.2
2017-Oct-04 12:46N 47°45' E 017°43'410.3
2017-Oct-04 12:24N 47°48' E 017°38'4 9.6
2017-Oct-04 12:00N 47°51' E 017°35'3 5.1
2017-Oct-04 11:27N 47°53' E 017°32'0 0.9
2017-Oct-04 11:01N 47°53' E 017°32'4 8.1
2017-Oct-04 10:31N 47°56' E 017°28'4 8.0
2017-Oct-04 10:01N 47°59' E 017°23'4 7.4
2017-Oct-04 09:30N 48°00' E 017°18'4 7.4
2017-Oct-04 09:01N 48°02' E 017°14'4 8.7
2017-Oct-04 08:30N 48°05' E 017°09'4 7.1
2017-Oct-04 08:01N 48°08' E 017°06'5 9.7
2017-Oct-04 07:31N 48°10' E 016°59'4 8.8
2017-Oct-04 07:00N 48°08' E 016°53'14 9.8
2017-Oct-04 05:34N 48°09' E 016°32'2 9.8
2017-Oct-04 05:21N 48°10' E 016°29'1 1.5
2017-Oct-04 04:52N 48°11' E 016°29'  

Dump ship's entire track history